Terminal Aerodrome Forecast
Issued by NWS

Home | Current Version | Previous Version | Graphics & Text | Print | Product List | Glossary On
Versions: 1 2 3 4 5 6 7 8 9 10 11 12
000
FTUS43 KIWX 020532
TAFSBN
TAF
KSBN 020532Z 0206/0306 33003KT P6SM BKN250
     FM021200 05005KT P6SM BKN020
     FM021400 06010KT P6SM SCT040
     FM022300 06005KT P6SM SCT250=

USA.gov is the U.S. government's official web portal to all federal, state and local government web resources and services.